createdAt,value
2019-02-27T00:02:29.893Z,8.30
2019-02-27T00:08:34.136Z,8.50
2019-02-27T00:14:38.324Z,8.60
2019-02-27T00:20:42.636Z,8.40
2019-02-27T00:26:46.872Z,8.30
2019-02-27T00:32:51.840Z,8.10
2019-02-27T00:38:57.926Z,8.00
2019-02-27T00:45:02.164Z,8.00
2019-02-27T00:51:06.387Z,7.90
2019-02-27T00:57:10.986Z,7.40
2019-02-27T01:03:15.378Z,7.00
2019-02-27T01:09:19.596Z,6.90
2019-02-27T01:15:24.160Z,6.90
2019-02-27T01:21:28.366Z,6.60
2019-02-27T01:27:32.626Z,6.60
2019-02-27T01:33:38.133Z,7.10
2019-02-27T01:39:44.069Z,7.10
2019-02-27T01:45:48.790Z,7.00
2019-02-27T01:51:53.080Z,7.00
2019-02-27T01:57:57.442Z,7.20
2019-02-27T02:04:01.728Z,6.60
2019-02-27T02:10:06.170Z,7.00
2019-02-27T02:16:34.115Z,7.20
2019-02-27T02:23:14.172Z,7.10
2019-02-27T02:30:12.027Z,7.10
2019-02-27T02:36:45.767Z,7.10
2019-02-27T02:43:30.842Z,6.20
2019-02-27T02:50:17.459Z,5.70
2019-02-27T02:56:38.370Z,6.00
2019-02-27T03:03:16.879Z,6.40
2019-02-27T03:10:20.223Z,6.40
2019-02-27T03:16:45.072Z,6.40
2019-02-27T03:23:23.397Z,6.30
2019-02-27T03:30:14.166Z,5.80
2019-02-27T03:36:54.587Z,5.30
2019-02-27T03:43:36.871Z,5.00
2019-02-27T03:50:15.765Z,4.90
2019-02-27T03:56:52.202Z,4.80
2019-02-27T04:03:05.210Z,4.70
2019-02-27T04:09:10.081Z,4.50
2019-02-27T04:15:17.768Z,4.50
2019-02-27T04:21:25.089Z,4.50
2019-02-27T04:27:26.709Z,4.40
2019-02-27T04:33:31.108Z,4.50
2019-02-27T04:39:38.208Z,4.30
2019-02-27T04:45:43.919Z,4.30
2019-02-27T04:51:50.622Z,4.40
2019-02-27T04:57:54.414Z,4.50
2019-02-27T05:04:01.016Z,4.40
2019-02-27T05:10:07.324Z,4.30
2019-02-27T05:16:13.889Z,4.40
2019-02-27T05:22:17.307Z,4.60
2019-02-27T05:28:21.616Z,4.50
2019-02-27T05:34:25.970Z,4.20
2019-02-27T05:40:30.331Z,4.70
2019-02-27T05:46:35.732Z,4.50
2019-02-27T05:52:40.570Z,4.40
2019-02-27T05:58:44.845Z,4.00
2019-02-27T06:04:49.191Z,3.90
2019-02-27T06:10:56.022Z,4.10
2019-02-27T06:16:59.349Z,4.00
2019-02-27T06:23:04.500Z,4.00
2019-02-27T06:29:09.339Z,3.90
2019-02-27T06:35:13.913Z,3.90
2019-02-27T06:41:18.465Z,3.50
2019-02-27T06:47:22.741Z,3.60
2019-02-27T06:53:27.033Z,3.60
2019-02-27T06:59:31.403Z,3.80
2019-02-27T07:05:35.767Z,3.90
2019-02-27T07:11:39.969Z,3.90
2019-02-27T07:17:44.178Z,4.20
2019-02-27T07:23:48.438Z,4.60
2019-02-27T07:29:52.705Z,5.10
2019-02-27T07:35:56.989Z,5.50
2019-02-27T07:42:01.268Z,6.00
2019-02-27T07:48:05.566Z,6.40
2019-02-27T07:54:09.762Z,7.10
2019-02-27T08:00:16.414Z,7.80
2019-02-27T08:06:20.715Z,8.20
2019-02-27T08:12:24.893Z,8.60
2019-02-27T08:18:30.578Z,8.90
2019-02-27T08:24:35.330Z,9.30
2019-02-27T08:30:39.862Z,9.60
2019-02-27T08:36:44.060Z,9.80
2019-02-27T08:42:48.408Z,10.00
2019-02-27T08:48:52.594Z,10.40
2019-02-27T08:54:56.931Z,10.50
2019-02-27T09:01:01.960Z,10.80
2019-02-27T09:07:06.217Z,10.90
2019-02-27T09:13:10.498Z,11.10
2019-02-27T09:25:23.532Z,11.30
2019-02-27T09:31:24.924Z,11.50
2019-02-27T09:37:29.351Z,11.50
2019-02-27T09:43:33.559Z,11.70
2019-02-27T09:49:38.016Z,11.90
2019-02-27T09:55:43.794Z,12.10
2019-02-27T10:01:47.993Z,12.20
2019-02-27T10:07:52.206Z,12.30
2019-02-27T10:13:56.458Z,12.50
2019-02-27T10:20:02.481Z,12.70
2019-02-27T10:26:06.618Z,12.90
2019-02-27T10:32:11.307Z,12.90
2019-02-27T10:38:15.630Z,12.90
2019-02-27T10:44:19.907Z,13.00
2019-02-27T10:50:24.172Z,13.20
2019-02-27T10:56:28.531Z,13.30
2019-02-27T11:02:33.045Z,13.30
2019-02-27T11:08:37.421Z,13.50
2019-02-27T11:14:41.647Z,13.60
2019-02-27T11:20:45.909Z,13.70
2019-02-27T11:26:50.171Z,13.80
2019-02-27T11:32:57.041Z,13.80
2019-02-27T11:39:00.319Z,14.00
2019-02-27T11:45:04.936Z,14.10
2019-02-27T11:51:09.212Z,14.10
2019-02-27T11:57:13.437Z,14.20
2019-02-27T12:03:17.902Z,14.40
2019-02-27T12:09:22.398Z,14.30
2019-02-27T12:15:27.303Z,14.30
2019-02-27T12:21:31.716Z,14.40
2019-02-27T12:27:48.669Z,14.50
2019-02-27T12:33:41.830Z,14.60
2019-02-27T12:39:47.239Z,14.60
2019-02-27T12:45:52.113Z,14.60
2019-02-27T12:51:56.304Z,14.80
2019-02-27T12:58:00.611Z,14.90
2019-02-27T13:04:04.832Z,14.90
2019-02-27T13:10:13.292Z,14.90
2019-02-27T13:16:17.598Z,14.90
2019-02-27T13:22:21.811Z,15.10
2019-02-27T13:28:26.073Z,15.10
2019-02-27T13:34:30.374Z,15.20
2019-02-27T13:40:35.677Z,15.20
2019-02-27T13:46:40.585Z,15.20
2019-02-27T13:52:49.885Z,15.30
2019-02-27T13:58:50.745Z,15.40
2019-02-27T14:04:57.302Z,15.50
2019-02-27T14:11:01.232Z,15.60
2019-02-27T14:17:07.634Z,15.70
2019-02-27T14:23:11.985Z,15.70
2019-02-27T14:29:17.438Z,15.80
2019-02-27T14:35:21.741Z,15.80
2019-02-27T14:41:25.969Z,15.80
2019-02-27T14:47:30.277Z,16.00
2019-02-27T14:53:34.477Z,15.80
2019-02-27T14:59:38.856Z,15.70
2019-02-27T15:05:45.083Z,15.80
2019-02-27T15:11:49.173Z,15.80
2019-02-27T15:17:54.695Z,15.70
2019-02-27T15:24:01.402Z,15.80
2019-02-27T15:30:05.703Z,15.80
2019-02-27T15:36:09.919Z,16.00
2019-02-27T15:42:16.108Z,15.90
2019-02-27T15:48:20.261Z,15.80
2019-02-27T15:54:24.876Z,15.90
2019-02-27T16:00:29.682Z,16.00
2019-02-27T16:06:33.962Z,15.60
2019-02-27T16:12:38.208Z,15.60
2019-02-27T16:18:42.484Z,15.70
2019-02-27T16:24:46.696Z,15.70
2019-02-27T16:30:50.892Z,15.50
2019-02-27T16:36:55.119Z,15.30
2019-02-27T16:42:59.356Z,15.10
2019-02-27T16:49:03.868Z,15.00
2019-02-27T16:55:09.982Z,14.80
2019-02-27T17:01:14.373Z,14.70
2019-02-27T17:07:18.816Z,14.60
2019-02-27T17:13:23.403Z,14.50
2019-02-27T17:19:28.836Z,14.40
2019-02-27T17:25:33.130Z,14.20
2019-02-27T17:31:37.614Z,14.00
2019-02-27T17:37:41.918Z,13.70
2019-02-27T17:43:46.214Z,13.40
2019-02-27T17:49:50.606Z,12.80
2019-02-27T17:55:54.798Z,12.80
2019-02-27T18:01:59.364Z,12.70
2019-02-27T18:08:03.784Z,12.50
2019-02-27T18:14:09.901Z,12.20
2019-02-27T18:20:14.427Z,11.90
2019-02-27T18:26:18.798Z,11.80
2019-02-27T18:32:23.104Z,11.50
2019-02-27T18:38:28.401Z,11.10
2019-02-27T18:44:32.803Z,11.20
2019-02-27T18:50:37.121Z,10.90
2019-02-27T18:56:41.979Z,10.70
2019-02-27T19:02:46.463Z,10.60
2019-02-27T19:08:51.869Z,10.50
2019-02-27T19:14:56.137Z,10.10
2019-02-27T19:21:00.457Z,9.60
2019-02-27T19:27:04.821Z,9.30
2019-02-27T19:33:09.162Z,9.30
2019-02-27T19:39:13.615Z,9.40
2019-02-27T19:45:18.039Z,9.30
2019-02-27T19:51:22.416Z,9.10
2019-02-27T19:57:26.710Z,8.80
2019-02-27T20:03:34.783Z,8.80
2019-02-27T20:09:37.054Z,8.70
2019-02-27T20:15:42.717Z,8.60
2019-02-27T20:21:47.923Z,8.40
2019-02-27T20:27:52.432Z,8.20
2019-02-27T20:33:56.791Z,8.30
2019-02-27T20:40:01.123Z,8.20
2019-02-27T20:46:05.686Z,8.10
2019-02-27T20:52:14.658Z,7.90
2019-02-27T20:58:17.405Z,7.70
2019-02-27T21:04:22.132Z,7.70
2019-02-27T21:10:26.764Z,7.80
2019-02-27T21:16:31.243Z,7.80
2019-02-27T21:22:35.551Z,7.80
2019-02-27T21:28:39.930Z,7.70
2019-02-27T21:34:44.203Z,7.60
2019-02-27T21:40:48.565Z,7.40
2019-02-27T21:46:52.838Z,7.50
2019-02-27T21:52:57.040Z,7.70
2019-02-27T21:59:04.779Z,7.50
2019-02-27T22:05:07.907Z,7.20
2019-02-27T22:11:12.301Z,7.00
2019-02-27T22:17:16.515Z,7.10
2019-02-27T22:23:20.877Z,7.10
2019-02-27T22:29:25.210Z,7.10
2019-02-27T22:35:31.096Z,7.00
2019-02-27T22:41:35.365Z,6.90
2019-02-27T22:47:39.629Z,6.60
2019-02-27T22:53:43.838Z,6.60
2019-02-27T22:59:48.084Z,6.50
2019-02-27T23:05:52.617Z,6.40
2019-02-27T23:11:56.983Z,6.50
2019-02-27T23:18:05.905Z,6.30
2019-02-27T23:24:10.988Z,6.40
2019-02-27T23:30:16.122Z,6.30
2019-02-27T23:36:22.100Z,6.20
2019-02-27T23:42:27.847Z,6.20
2019-02-27T23:48:35.820Z,6.30
2019-02-27T23:54:38.474Z,6.20
